Eurico de Aguiar Salles Airport
SBVT : now visible

Airfield :











YOU CAN JOIN US ON...

 
LOGIN :

Register | Disclaimer

   EN    FR    IT 

 









Legend :    VFR   Marginal VFR   IFR   Intensive IFR   Very Intensive IFR
Visi :
Ceiling :
>= 8 km
>= 3000ft
5 to 8 km
1000 to 3000 ft
1500m to 5 km
500 to 1000 ft
800 to 1500m
200 to 500 ft
< 800m
< 200 ft
Symbols :   Thunderstorms  Fog  Heavy snow  Heavy precipitations  Wind > 20 kt






- Airport Elevation : 11 ft
- IATA code : VIX


SBVT - Eurico de Aguiar Salles

CURRENT METAR :
  • 271500Z 13008KT CAVOK 24/15 Q1015

EXPIRED METARs :
  • 271400Z 15009KT CAVOK 23/16 Q1016
  • 271300Z 16007KT CAVOK 22/17 Q1016

TAF TAF SBVT
Valid from the 27 at 12:00 until the 28 at 12:00 UTC


270900Z 2712/2812 01005KT 9999 FEW025 TX25/2718Z TN20/2808Z
BECMG 2713/2715 17008KT
BECMG 2717/2719 17012KT CAVOK
BECMG 2721/2723 18005KT
BECMG 2800/2802 34003KT RMK PAY
SBCW FIR / South America



MET'MAP, your aeronautical weather chart ! - Copyright ORBIFLY December 2007 - Disclaimer

ORBIFLY MET'MAP TEAM :

Programming & Development : Alexandra Zaïnal
Concept & original design : Baudouin d'Aumeries
Assistance for programming : Marc-Olivier Méhu
Technical & hardware support : Manuel Goepfert

Contact : metmap@orbifly.com




SOURCES & CREDITS :

   NOAA       Earth
Advisory